sensor_id;sensor_type;location;lat;lon;timestamp;temperature;humidity
44767;DHT22;30487;48.716;9.272;2022-11-15T00:01:50;9.60;99.90
44767;DHT22;30487;48.716;9.272;2022-11-15T00:04:16;9.60;99.90
44767;DHT22;30487;48.716;9.272;2022-11-15T00:06:41;9.60;99.90
44767;DHT22;30487;48.716;9.272;2022-11-15T00:09:07;9.60;99.90
44767;DHT22;30487;48.716;9.272;2022-11-15T00:11:32;9.60;99.90
44767;DHT22;30487;48.716;9.272;2022-11-15T00:13:58;9.60;99.90
44767;DHT22;30487;48.716;9.272;2022-11-15T00:16:24;9.60;99.90
44767;DHT22;30487;48.716;9.272;2022-11-15T00:18:50;9.60;99.90
44767;DHT22;30487;48.716;9.272;2022-11-15T00:21:16;9.60;99.90
44767;DHT22;30487;48.716;9.272;2022-11-15T00:23:42;9.50;99.90
44767;DHT22;30487;48.716;9.272;2022-11-15T00:26:12;9.50;99.90
44767;DHT22;30487;48.716;9.272;2022-11-15T00:28:38;9.40;99.90
44767;DHT22;30487;48.716;9.272;2022-11-15T00:31:06;9.40;99.90
44767;DHT22;30487;48.716;9.272;2022-11-15T00:33:33;9.40;99.90
44767;DHT22;30487;48.716;9.272;2022-11-15T00:36:04;9.40;99.90
44767;DHT22;30487;48.716;9.272;2022-11-15T00:38:34;9.40;99.90
44767;DHT22;30487;48.716;9.272;2022-11-15T00:41:00;9.50;99.90
44767;DHT22;30487;48.716;9.272;2022-11-15T00:43:26;9.50;99.90
44767;DHT22;30487;48.716;9.272;2022-11-15T00:45:52;9.40;99.90
44767;DHT22;30487;48.716;9.272;2022-11-15T00:48:18;9.40;99.90
44767;DHT22;30487;48.716;9.272;2022-11-15T00:50:43;9.40;99.90
44767;DHT22;30487;48.716;9.272;2022-11-15T00:53:09;9.50;99.90
44767;DHT22;30487;48.716;9.272;2022-11-15T00:55:34;9.50;99.90
44767;DHT22;30487;48.716;9.272;2022-11-15T00:58:00;9.50;99.90
44767;DHT22;30487;48.716;9.272;2022-11-15T01:00:26;9.40;99.90
44767;DHT22;30487;48.716;9.272;2022-11-15T01:02:51;9.40;99.90
44767;DHT22;30487;48.716;9.272;2022-11-15T01:05:17;9.40;99.90
44767;DHT22;30487;48.716;9.272;2022-11-15T01:07:42;9.40;99.90
44767;DHT22;30487;48.716;9.272;2022-11-15T01:10:08;9.40;99.90
44767;DHT22;30487;48.716;9.272;2022-11-15T01:12:34;9.40;99.90
44767;DHT22;30487;48.716;9.272;2022-11-15T01:14:59;9.40;99.90
44767;DHT22;30487;48.716;9.272;2022-11-15T01:17:25;9.40;99.90
44767;DHT22;30487;48.716;9.272;2022-11-15T01:19:51;9.40;99.90
44767;DHT22;30487;48.716;9.272;2022-11-15T01:22:17;9.40;99.90
44767;DHT22;30487;48.716;9.272;2022-11-15T01:24:43;9.40;99.90
44767;DHT22;30487;48.716;9.272;2022-11-15T01:27:08;9.40;99.90
44767;DHT22;30487;48.716;9.272;2022-11-15T01:29:34;9.40;99.90
44767;DHT22;30487;48.716;9.272;2022-11-15T01:32:00;9.40;99.90
44767;DHT22;30487;48.716;9.272;2022-11-15T01:34:25;9.40;99.90
44767;DHT22;30487;48.716;9.272;2022-11-15T01:36:51;9.40;99.90
44767;DHT22;30487;48.716;9.272;2022-11-15T01:39:17;9.30;99.90
44767;DHT22;30487;48.716;9.272;2022-11-15T01:41:42;9.30;99.90
44767;DHT22;30487;48.716;9.272;2022-11-15T01:47:14;9.30;99.90
44767;DHT22;30487;48.716;9.272;2022-11-15T01:49:50;9.30;99.90
44767;DHT22;30487;48.716;9.272;2022-11-15T01:52:19;9.20;99.90
44767;DHT22;30487;48.716;9.272;2022-11-15T01:54:48;9.20;99.90
44767;DHT22;30487;48.716;9.272;2022-11-15T01:57:14;9.20;99.90
44767;DHT22;30487;48.716;9.272;2022-11-15T01:59:42;9.20;99.90
44767;DHT22;30487;48.716;9.272;2022-11-15T02:02:08;9.20;99.90
44767;DHT22;30487;48.716;9.272;2022-11-15T02:04:39;9.20;99.90
44767;DHT22;30487;48.716;9.272;2022-11-15T02:07:06;9.20;99.90
44767;DHT22;30487;48.716;9.272;2022-11-15T02:09:34;9.20;99.90
44767;DHT22;30487;48.716;9.272;2022-11-15T02:12:00;9.20;99.90
44767;DHT22;30487;48.716;9.272;2022-11-15T02:14:28;9.20;99.90
44767;DHT22;30487;48.716;9.272;2022-11-15T02:19:48;9.20;99.90
44767;DHT22;30487;48.716;9.272;2022-11-15T02:30:53;9.10;99.90
44767;DHT22;30487;48.716;9.272;2022-11-15T02:39:02;9.00;99.90
44767;DHT22;30487;48.716;9.272;2022-11-15T02:41:46;8.90;99.90
44767;DHT22;30487;48.716;9.272;2022-11-15T02:44:18;8.90;99.90
44767;DHT22;30487;48.716;9.272;2022-11-15T02:46:54;8.90;99.90
44767;DHT22;30487;48.716;9.272;2022-11-15T02:49:56;8.90;99.90
44767;DHT22;30487;48.716;9.272;2022-11-15T02:52:24;8.90;99.90
44767;DHT22;30487;48.716;9.272;2022-11-15T02:54:57;8.90;99.90
44767;DHT22;30487;48.716;9.272;2022-11-15T03:00:13;8.90;99.90
44767;DHT22;30487;48.716;9.272;2022-11-15T03:03:07;8.90;99.90
44767;DHT22;30487;48.716;9.272;2022-11-15T03:05:41;8.90;99.90
44767;DHT22;30487;48.716;9.272;2022-11-15T03:08:32;8.90;99.90
44767;DHT22;30487;48.716;9.272;2022-11-15T03:11:08;9.00;99.90
44767;DHT22;30487;48.716;9.272;2022-11-15T03:13:47;9.00;99.90
44767;DHT22;30487;48.716;9.272;2022-11-15T03:16:34;9.00;99.90
44767;DHT22;30487;48.716;9.272;2022-11-15T03:19:25;9.00;99.90
44767;DHT22;30487;48.716;9.272;2022-11-15T03:21:55;9.00;99.90
44767;DHT22;30487;48.716;9.272;2022-11-15T03:24:23;9.00;99.90
44767;DHT22;30487;48.716;9.272;2022-11-15T03:26:51;8.90;99.90
44767;DHT22;30487;48.716;9.272;2022-11-15T03:29:25;8.90;99.90
44767;DHT22;30487;48.716;9.272;2022-11-15T03:31:58;9.00;99.90
44767;DHT22;30487;48.716;9.272;2022-11-15T03:37:10;8.90;99.90
44767;DHT22;30487;48.716;9.272;2022-11-15T03:39:37;8.90;99.90
44767;DHT22;30487;48.716;9.272;2022-11-15T03:45:12;8.90;99.90
44767;DHT22;30487;48.716;9.272;2022-11-15T03:47:41;8.90;99.90
44767;DHT22;30487;48.716;9.272;2022-11-15T03:50:17;8.90;99.90
44767;DHT22;30487;48.716;9.272;2022-11-15T03:52:45;8.90;99.90
44767;DHT22;30487;48.716;9.272;2022-11-15T03:55:14;8.90;99.90
44767;DHT22;30487;48.716;9.272;2022-11-15T03:57:41;8.90;99.90
44767;DHT22;30487;48.716;9.272;2022-11-15T04:00:07;8.90;99.90
44767;DHT22;30487;48.716;9.272;2022-11-15T04:02:33;8.90;99.90
44767;DHT22;30487;48.716;9.272;2022-11-15T04:04:58;8.90;99.90
44767;DHT22;30487;48.716;9.272;2022-11-15T04:07:24;8.80;99.90
44767;DHT22;30487;48.716;9.272;2022-11-15T04:09:50;8.80;99.90
44767;DHT22;30487;48.716;9.272;2022-11-15T04:12:31;8.80;99.90
44767;DHT22;30487;48.716;9.272;2022-11-15T04:15:17;8.80;99.90
44767;DHT22;30487;48.716;9.272;2022-11-15T04:17:50;8.80;99.90
44767;DHT22;30487;48.716;9.272;2022-11-15T04:20:20;8.80;99.90
44767;DHT22;30487;48.716;9.272;2022-11-15T04:23:08;8.80;99.90
44767;DHT22;30487;48.716;9.272;2022-11-15T04:25:54;8.80;99.90
44767;DHT22;30487;48.716;9.272;2022-11-15T04:28:21;8.70;99.90
44767;DHT22;30487;48.716;9.272;2022-11-15T04:30:47;8.70;99.90
44767;DHT22;30487;48.716;9.272;2022-11-15T04:33:13;8.70;99.90
44767;DHT22;30487;48.716;9.272;2022-11-15T04:35:39;8.70;99.90
44767;DHT22;30487;48.716;9.272;2022-11-15T04:38:07;8.70;99.90
44767;DHT22;30487;48.716;9.272;2022-11-15T04:40:33;8.60;99.90
44767;DHT22;30487;48.716;9.272;2022-11-15T04:42:58;8.60;99.90
44767;DHT22;30487;48.716;9.272;2022-11-15T04:45:24;8.60;99.90
44767;DHT22;30487;48.716;9.272;2022-11-15T04:47:50;8.60;99.90
44767;DHT22;30487;48.716;9.272;2022-11-15T04:50:16;8.60;99.90
44767;DHT22;30487;48.716;9.272;2022-11-15T04:52:51;8.60;99.90
44767;DHT22;30487;48.716;9.272;2022-11-15T04:55:17;8.50;99.90
44767;DHT22;30487;48.716;9.272;2022-11-15T04:57:42;8.50;99.90
44767;DHT22;30487;48.716;9.272;2022-11-15T05:00:11;8.40;99.90
44767;DHT22;30487;48.716;9.272;2022-11-15T05:02:37;8.40;99.90
44767;DHT22;30487;48.716;9.272;2022-11-15T05:05:21;8.40;99.90
44767;DHT22;30487;48.716;9.272;2022-11-15T05:07:47;8.40;99.90
44767;DHT22;30487;48.716;9.272;2022-11-15T05:10:12;8.40;99.90
44767;DHT22;30487;48.716;9.272;2022-11-15T05:12:38;8.40;99.90
44767;DHT22;30487;48.716;9.272;2022-11-15T05:15:04;8.40;99.90
44767;DHT22;30487;48.716;9.272;2022-11-15T05:17:30;8.40;99.90
44767;DHT22;30487;48.716;9.272;2022-11-15T05:19:56;8.40;99.90
44767;DHT22;30487;48.716;9.272;2022-11-15T05:22:21;8.40;99.90
44767;DHT22;30487;48.716;9.272;2022-11-15T05:24:47;8.40;99.90
44767;DHT22;30487;48.716;9.272;2022-11-15T05:27:12;8.40;99.90
44767;DHT22;30487;48.716;9.272;2022-11-15T05:29:38;8.40;99.90
44767;DHT22;30487;48.716;9.272;2022-11-15T05:32:05;8.40;99.90
44767;DHT22;30487;48.716;9.272;2022-11-15T05:34:32;8.40;99.90
44767;DHT22;30487;48.716;9.272;2022-11-15T05:36:58;8.40;99.90
44767;DHT22;30487;48.716;9.272;2022-11-15T05:39:24;8.40;99.90
44767;DHT22;30487;48.716;9.272;2022-11-15T05:42:05;8.40;99.90
44767;DHT22;30487;48.716;9.272;2022-11-15T05:44:33;8.40;99.90
44767;DHT22;30487;48.716;9.272;2022-11-15T05:46:59;8.40;99.90
44767;DHT22;30487;48.716;9.272;2022-11-15T05:49:30;8.40;99.90
44767;DHT22;30487;48.716;9.272;2022-11-15T05:51:57;8.40;99.90
44767;DHT22;30487;48.716;9.272;2022-11-15T05:54:23;8.40;99.90
44767;DHT22;30487;48.716;9.272;2022-11-15T05:56:50;8.40;99.90
44767;DHT22;30487;48.716;9.272;2022-11-15T05:59:16;8.40;99.90
44767;DHT22;30487;48.716;9.272;2022-11-15T06:01:43;8.40;99.90
44767;DHT22;30487;48.716;9.272;2022-11-15T06:04:09;8.40;99.90
44767;DHT22;30487;48.716;9.272;2022-11-15T06:06:34;8.30;99.90
44767;DHT22;30487;48.716;9.272;2022-11-15T06:09:00;8.30;99.90
44767;DHT22;30487;48.716;9.272;2022-11-15T06:11:25;8.30;99.90
44767;DHT22;30487;48.716;9.272;2022-11-15T06:13:51;8.30;99.90
44767;DHT22;30487;48.716;9.272;2022-11-15T06:16:16;8.30;99.90
44767;DHT22;30487;48.716;9.272;2022-11-15T06:18:42;8.30;99.90
44767;DHT22;30487;48.716;9.272;2022-11-15T06:21:08;8.30;99.90
44767;DHT22;30487;48.716;9.272;2022-11-15T06:23:34;8.30;99.90
44767;DHT22;30487;48.716;9.272;2022-11-15T06:26:01;8.30;99.90
44767;DHT22;30487;48.716;9.272;2022-11-15T06:28:31;8.30;99.90
44767;DHT22;30487;48.716;9.272;2022-11-15T06:33:30;8.30;99.90
44767;DHT22;30487;48.716;9.272;2022-11-15T06:35:55;8.30;99.90
44767;DHT22;30487;48.716;9.272;2022-11-15T06:38:21;8.30;99.90
44767;DHT22;30487;48.716;9.272;2022-11-15T06:40:46;8.30;99.90
44767;DHT22;30487;48.716;9.272;2022-11-15T06:43:15;8.30;99.90
44767;DHT22;30487;48.716;9.272;2022-11-15T06:45:40;8.30;99.90
44767;DHT22;30487;48.716;9.272;2022-11-15T06:48:06;8.30;99.90
44767;DHT22;30487;48.716;9.272;2022-11-15T06:50:32;8.30;99.90
44767;DHT22;30487;48.716;9.272;2022-11-15T06:53:01;8.30;99.90
44767;DHT22;30487;48.716;9.272;2022-11-15T06:55:27;8.30;99.90
44767;DHT22;30487;48.716;9.272;2022-11-15T06:57:52;8.30;99.90
44767;DHT22;30487;48.716;9.272;2022-11-15T07:00:20;8.30;99.90
44767;DHT22;30487;48.716;9.272;2022-11-15T07:02:46;8.30;99.90
44767;DHT22;30487;48.716;9.272;2022-11-15T07:05:13;8.40;99.90
44767;DHT22;30487;48.716;9.272;2022-11-15T07:07:39;8.40;99.90
44767;DHT22;30487;48.716;9.272;2022-11-15T07:10:10;8.50;99.90
44767;DHT22;30487;48.716;9.272;2022-11-15T07:12:38;8.60;99.90
44767;DHT22;30487;48.716;9.272;2022-11-15T07:15:04;8.70;99.90
44767;DHT22;30487;48.716;9.272;2022-11-15T07:17:30;8.80;99.90
44767;DHT22;30487;48.716;9.272;2022-11-15T07:19:55;8.90;99.90
44767;DHT22;30487;48.716;9.272;2022-11-15T07:22:21;9.00;99.90
44767;DHT22;30487;48.716;9.272;2022-11-15T07:24:46;9.20;99.90
44767;DHT22;30487;48.716;9.272;2022-11-15T07:27:12;9.30;99.90
44767;DHT22;30487;48.716;9.272;2022-11-15T07:29:37;9.50;99.90
44767;DHT22;30487;48.716;9.272;2022-11-15T07:32:03;9.70;99.90
44767;DHT22;30487;48.716;9.272;2022-11-15T07:34:29;9.90;99.90
44767;DHT22;30487;48.716;9.272;2022-11-15T07:36:54;9.90;99.90
44767;DHT22;30487;48.716;9.272;2022-11-15T07:39:20;10.00;99.90
44767;DHT22;30487;48.716;9.272;2022-11-15T07:41:45;10.00;99.90
44767;DHT22;30487;48.716;9.272;2022-11-15T07:44:13;10.20;99.90
44767;DHT22;30487;48.716;9.272;2022-11-15T07:46:38;10.60;99.90
44767;DHT22;30487;48.716;9.272;2022-11-15T07:49:04;11.00;99.90
44767;DHT22;30487;48.716;9.272;2022-11-15T07:51:30;11.30;99.90
44767;DHT22;30487;48.716;9.272;2022-11-15T07:53:55;11.80;99.90
44767;DHT22;30487;48.716;9.272;2022-11-15T07:56:21;12.10;99.90
44767;DHT22;30487;48.716;9.272;2022-11-15T08:12:58;13.60;99.90
44767;DHT22;30487;48.716;9.272;2022-11-15T08:15:25;13.50;99.90
44767;DHT22;30487;48.716;9.272;2022-11-15T08:18:12;13.30;99.90
44767;DHT22;30487;48.716;9.272;2022-11-15T08:20:38;13.20;99.90
44767;DHT22;30487;48.716;9.272;2022-11-15T08:23:05;13.20;99.90
44767;DHT22;30487;48.716;9.272;2022-11-15T08:25:33;13.20;99.90
44767;DHT22;30487;48.716;9.272;2022-11-15T08:28:01;13.40;99.90
44767;DHT22;30487;48.716;9.272;2022-11-15T08:30:27;13.50;99.90
44767;DHT22;30487;48.716;9.272;2022-11-15T08:32:53;13.50;99.90
44767;DHT22;30487;48.716;9.272;2022-11-15T08:35:20;13.30;99.90
44767;DHT22;30487;48.716;9.272;2022-11-15T08:37:46;13.30;99.90
44767;DHT22;30487;48.716;9.272;2022-11-15T08:40:12;13.20;99.90
44767;DHT22;30487;48.716;9.272;2022-11-15T08:42:39;13.20;99.90
44767;DHT22;30487;48.716;9.272;2022-11-15T08:45:05;13.20;99.90
44767;DHT22;30487;48.716;9.272;2022-11-15T08:47:31;13.30;99.90
44767;DHT22;30487;48.716;9.272;2022-11-15T08:49:57;13.30;99.90
44767;DHT22;30487;48.716;9.272;2022-11-15T08:52:22;13.30;99.90
44767;DHT22;30487;48.716;9.272;2022-11-15T08:54:48;13.40;99.90
44767;DHT22;30487;48.716;9.272;2022-11-15T08:57:14;13.60;99.90
44767;DHT22;30487;48.716;9.272;2022-11-15T08:59:39;14.00;99.90
44767;DHT22;30487;48.716;9.272;2022-11-15T09:02:05;14.40;99.90
44767;DHT22;30487;48.716;9.272;2022-11-15T09:04:31;14.70;99.90
44767;DHT22;30487;48.716;9.272;2022-11-15T09:06:57;15.00;99.90
44767;DHT22;30487;48.716;9.272;2022-11-15T09:09:22;15.30;99.90
44767;DHT22;30487;48.716;9.272;2022-11-15T09:11:48;15.70;99.90
44767;DHT22;30487;48.716;9.272;2022-11-15T09:14:14;16.20;99.90
44767;DHT22;30487;48.716;9.272;2022-11-15T09:16:40;16.40;99.90
44767;DHT22;30487;48.716;9.272;2022-11-15T09:19:06;16.40;99.90
44767;DHT22;30487;48.716;9.272;2022-11-15T09:21:32;16.30;99.90
44767;DHT22;30487;48.716;9.272;2022-11-15T09:23:57;16.10;99.90
44767;DHT22;30487;48.716;9.272;2022-11-15T09:26:23;15.80;99.90
44767;DHT22;30487;48.716;9.272;2022-11-15T09:28:49;15.60;99.90
44767;DHT22;30487;48.716;9.272;2022-11-15T09:31:15;15.20;99.90
44767;DHT22;30487;48.716;9.272;2022-11-15T09:33:43;15.20;99.90
44767;DHT22;30487;48.716;9.272;2022-11-15T09:36:09;15.30;99.90
44767;DHT22;30487;48.716;9.272;2022-11-15T09:38:35;15.60;99.90
44767;DHT22;30487;48.716;9.272;2022-11-15T09:47:03;16.80;99.90
44767;DHT22;30487;48.716;9.272;2022-11-15T09:49:32;17.20;99.00
44767;DHT22;30487;48.716;9.272;2022-11-15T09:51:58;17.40;98.20
44767;DHT22;30487;48.716;9.272;2022-11-15T09:54:32;17.60;98.20
44767;DHT22;30487;48.716;9.272;2022-11-15T09:57:14;18.00;98.00
44767;DHT22;30487;48.716;9.272;2022-11-15T09:59:57;18.50;96.70
44767;DHT22;30487;48.716;9.272;2022-11-15T10:03:03;18.10;96.60
44767;DHT22;30487;48.716;9.272;2022-11-15T10:05:40;17.90;96.90
44767;DHT22;30487;48.716;9.272;2022-11-15T10:10:59;18.20;96.40
44767;DHT22;30487;48.716;9.272;2022-11-15T10:13:29;17.80;96.30
44767;DHT22;30487;48.716;9.272;2022-11-15T10:18:36;16.90;97.10
44767;DHT22;30487;48.716;9.272;2022-11-15T10:24:13;16.80;98.90
44767;DHT22;30487;48.716;9.272;2022-11-15T10:26:47;16.80;98.50
44767;DHT22;30487;48.716;9.272;2022-11-15T10:29:20;16.60;98.50
44767;DHT22;30487;48.716;9.272;2022-11-15T10:31:46;16.40;98.90
44767;DHT22;30487;48.716;9.272;2022-11-15T10:34:18;16.30;99.30
44767;DHT22;30487;48.716;9.272;2022-11-15T10:36:45;16.20;98.90
44767;DHT22;30487;48.716;9.272;2022-11-15T10:39:12;16.00;98.80
44767;DHT22;30487;48.716;9.272;2022-11-15T10:41:41;15.70;99.30
44767;DHT22;30487;48.716;9.272;2022-11-15T10:46:33;15.40;99.80
44767;DHT22;30487;48.716;9.272;2022-11-15T10:51:43;15.30;99.90
44767;DHT22;30487;48.716;9.272;2022-11-15T10:54:10;15.30;99.90
44767;DHT22;30487;48.716;9.272;2022-11-15T10:56:39;15.30;99.90
44767;DHT22;30487;48.716;9.272;2022-11-15T10:59:16;15.30;99.90
44767;DHT22;30487;48.716;9.272;2022-11-15T11:01:47;15.20;99.90
44767;DHT22;30487;48.716;9.272;2022-11-15T11:04:12;15.20;99.90
44767;DHT22;30487;48.716;9.272;2022-11-15T11:11:51;15.00;99.90
44767;DHT22;30487;48.716;9.272;2022-11-15T11:14:22;14.80;99.90
44767;DHT22;30487;48.716;9.272;2022-11-15T11:19:49;14.70;99.90
44767;DHT22;30487;48.716;9.272;2022-11-15T11:36:01;14.50;99.90
44767;DHT22;30487;48.716;9.272;2022-11-15T11:38:48;14.50;99.90
44767;DHT22;30487;48.716;9.272;2022-11-15T11:44:05;14.60;99.90
44767;DHT22;30487;48.716;9.272;2022-11-15T11:46:52;14.60;99.90
44767;DHT22;30487;48.716;9.272;2022-11-15T11:49:34;14.60;99.90
44767;DHT22;30487;48.716;9.272;2022-11-15T11:52:31;14.60;99.90
44767;DHT22;30487;48.716;9.272;2022-11-15T12:00:52;14.70;99.90
44767;DHT22;30487;48.716;9.272;2022-11-15T12:04:16;14.80;99.90
44767;DHT22;30487;48.716;9.272;2022-11-15T12:06:58;14.90;99.90
44767;DHT22;30487;48.716;9.272;2022-11-15T12:12:24;15.30;99.90
44767;DHT22;30487;48.716;9.272;2022-11-15T12:17:34;15.20;99.90
44767;DHT22;30487;48.716;9.272;2022-11-15T12:20:03;15.20;99.90
44767;DHT22;30487;48.716;9.272;2022-11-15T12:22:57;15.10;99.90
44767;DHT22;30487;48.716;9.272;2022-11-15T12:25:29;15.00;99.90
44767;DHT22;30487;48.716;9.272;2022-11-15T12:27:57;14.90;99.90
44767;DHT22;30487;48.716;9.272;2022-11-15T12:30:27;14.70;99.90
44767;DHT22;30487;48.716;9.272;2022-11-15T12:32:57;14.70;99.90
44767;DHT22;30487;48.716;9.272;2022-11-15T12:35:37;14.70;99.90
44767;DHT22;30487;48.716;9.272;2022-11-15T12:38:04;14.60;99.90
44767;DHT22;30487;48.716;9.272;2022-11-15T12:41:12;14.50;99.90
44767;DHT22;30487;48.716;9.272;2022-11-15T12:43:38;14.40;99.90
44767;DHT22;30487;48.716;9.272;2022-11-15T12:46:08;14.40;99.90
44767;DHT22;30487;48.716;9.272;2022-11-15T12:51:03;14.30;99.90
44767;DHT22;30487;48.716;9.272;2022-11-15T12:53:31;14.30;99.90
44767;DHT22;30487;48.716;9.272;2022-11-15T12:58:44;14.20;99.90
44767;DHT22;30487;48.716;9.272;2022-11-15T13:06:45;14.20;99.90
44767;DHT22;30487;48.716;9.272;2022-11-15T13:15:01;14.00;99.90
44767;DHT22;30487;48.716;9.272;2022-11-15T13:22:18;14.10;99.90
44767;DHT22;30487;48.716;9.272;2022-11-15T13:25:03;14.00;99.90
44767;DHT22;30487;48.716;9.272;2022-11-15T13:27:29;14.10;99.90
44767;DHT22;30487;48.716;9.272;2022-11-15T13:29:55;14.10;99.90
44767;DHT22;30487;48.716;9.272;2022-11-15T13:32:21;14.00;99.90
44767;DHT22;30487;48.716;9.272;2022-11-15T13:34:49;14.00;99.90
44767;DHT22;30487;48.716;9.272;2022-11-15T13:39:47;14.00;99.90
44767;DHT22;30487;48.716;9.272;2022-11-15T13:42:19;14.00;99.90
44767;DHT22;30487;48.716;9.272;2022-11-15T13:45:02;14.00;99.90
44767;DHT22;30487;48.716;9.272;2022-11-15T13:47:29;14.00;99.90
44767;DHT22;30487;48.716;9.272;2022-11-15T13:49:58;13.90;99.90
44767;DHT22;30487;48.716;9.272;2022-11-15T13:52:34;13.80;99.90
44767;DHT22;30487;48.716;9.272;2022-11-15T13:55:04;13.80;99.90
44767;DHT22;30487;48.716;9.272;2022-11-15T14:00:43;13.70;99.90
44767;DHT22;30487;48.716;9.272;2022-11-15T14:03:19;13.60;99.90
44767;DHT22;30487;48.716;9.272;2022-11-15T14:06:09;13.60;99.90
44767;DHT22;30487;48.716;9.272;2022-11-15T14:08:41;13.60;99.90
44767;DHT22;30487;48.716;9.272;2022-11-15T14:11:17;13.60;99.90
44767;DHT22;30487;48.716;9.272;2022-11-15T14:14:01;13.50;99.90
44767;DHT22;30487;48.716;9.272;2022-11-15T14:16:37;13.50;99.90
44767;DHT22;30487;48.716;9.272;2022-11-15T14:19:04;13.40;99.90
44767;DHT22;30487;48.716;9.272;2022-11-15T14:21:30;13.40;99.90
44767;DHT22;30487;48.716;9.272;2022-11-15T14:24:18;13.40;99.90
44767;DHT22;30487;48.716;9.272;2022-11-15T14:26:46;13.30;99.90
44767;DHT22;30487;48.716;9.272;2022-11-15T14:31:47;13.30;99.90
44767;DHT22;30487;48.716;9.272;2022-11-15T14:34:13;13.30;99.90
44767;DHT22;30487;48.716;9.272;2022-11-15T14:36:38;13.30;99.90
44767;DHT22;30487;48.716;9.272;2022-11-15T14:39:04;13.20;99.90
44767;DHT22;30487;48.716;9.272;2022-11-15T14:41:34;13.20;99.90
44767;DHT22;30487;48.716;9.272;2022-11-15T14:44:03;13.20;99.90
44767;DHT22;30487;48.716;9.272;2022-11-15T14:46:30;13.20;99.90
44767;DHT22;30487;48.716;9.272;2022-11-15T14:48:55;13.20;99.90
44767;DHT22;30487;48.716;9.272;2022-11-15T14:51:21;13.10;99.90
44767;DHT22;30487;48.716;9.272;2022-11-15T14:53:47;13.10;99.90
44767;DHT22;30487;48.716;9.272;2022-11-15T14:56:14;13.10;99.90
44767;DHT22;30487;48.716;9.272;2022-11-15T14:58:39;13.10;99.90
44767;DHT22;30487;48.716;9.272;2022-11-15T15:01:34;13.10;99.90
44767;DHT22;30487;48.716;9.272;2022-11-15T15:04:00;13.00;99.90
44767;DHT22;30487;48.716;9.272;2022-11-15T15:06:26;13.00;99.90
44767;DHT22;30487;48.716;9.272;2022-11-15T15:08:51;13.00;99.90
44767;DHT22;30487;48.716;9.272;2022-11-15T15:11:28;13.00;99.90
44767;DHT22;30487;48.716;9.272;2022-11-15T15:13:54;13.00;99.90
44767;DHT22;30487;48.716;9.272;2022-11-15T15:16:23;13.00;99.90
44767;DHT22;30487;48.716;9.272;2022-11-15T15:18:50;12.90;99.90
44767;DHT22;30487;48.716;9.272;2022-11-15T15:21:26;12.90;99.90
44767;DHT22;30487;48.716;9.272;2022-11-15T15:23:53;12.80;99.90
44767;DHT22;30487;48.716;9.272;2022-11-15T15:26:22;12.80;99.90
44767;DHT22;30487;48.716;9.272;2022-11-15T15:28:48;12.80;99.90
44767;DHT22;30487;48.716;9.272;2022-11-15T15:31:16;12.80;99.90
44767;DHT22;30487;48.716;9.272;2022-11-15T15:33:42;12.80;99.90
44767;DHT22;30487;48.716;9.272;2022-11-15T15:36:16;12.80;99.90
44767;DHT22;30487;48.716;9.272;2022-11-15T15:38:42;12.70;99.90
44767;DHT22;30487;48.716;9.272;2022-11-15T15:41:16;12.70;99.90
44767;DHT22;30487;48.716;9.272;2022-11-15T15:43:42;12.70;99.90
44767;DHT22;30487;48.716;9.272;2022-11-15T15:46:13;12.60;99.90
44767;DHT22;30487;48.716;9.272;2022-11-15T15:48:39;12.60;99.90
44767;DHT22;30487;48.716;9.272;2022-11-15T15:51:05;12.60;99.90
44767;DHT22;30487;48.716;9.272;2022-11-15T15:53:31;12.60;99.90
44767;DHT22;30487;48.716;9.272;2022-11-15T15:55:57;12.60;99.90
44767;DHT22;30487;48.716;9.272;2022-11-15T15:58:22;12.60;99.90
44767;DHT22;30487;48.716;9.272;2022-11-15T16:00:48;12.60;99.90
44767;DHT22;30487;48.716;9.272;2022-11-15T16:03:13;12.50;99.90
44767;DHT22;30487;48.716;9.272;2022-11-15T16:05:39;12.50;99.90
44767;DHT22;30487;48.716;9.272;2022-11-15T16:08:05;12.60;99.90
44767;DHT22;30487;48.716;9.272;2022-11-15T16:10:32;12.50;99.90
44767;DHT22;30487;48.716;9.272;2022-11-15T16:13:02;12.50;99.90
44767;DHT22;30487;48.716;9.272;2022-11-15T16:15:30;12.50;99.90
44767;DHT22;30487;48.716;9.272;2022-11-15T16:17:58;12.50;99.90
44767;DHT22;30487;48.716;9.272;2022-11-15T16:23:10;12.40;99.90
44767;DHT22;30487;48.716;9.272;2022-11-15T16:25:48;12.40;99.90
44767;DHT22;30487;48.716;9.272;2022-11-15T16:28:20;12.40;99.90
44767;DHT22;30487;48.716;9.272;2022-11-15T16:30:46;12.40;99.90
44767;DHT22;30487;48.716;9.272;2022-11-15T16:33:12;12.40;99.90
44767;DHT22;30487;48.716;9.272;2022-11-15T16:35:37;12.40;99.90
44767;DHT22;30487;48.716;9.272;2022-11-15T16:38:03;12.40;99.90
44767;DHT22;30487;48.716;9.272;2022-11-15T16:40:31;12.40;99.90
44767;DHT22;30487;48.716;9.272;2022-11-15T16:42:57;12.40;99.90
44767;DHT22;30487;48.716;9.272;2022-11-15T16:45:24;12.40;99.90
44767;DHT22;30487;48.716;9.272;2022-11-15T16:47:50;12.30;99.90
44767;DHT22;30487;48.716;9.272;2022-11-15T16:50:25;12.30;99.90
44767;DHT22;30487;48.716;9.272;2022-11-15T16:52:58;12.40;99.90
44767;DHT22;30487;48.716;9.272;2022-11-15T16:55:26;12.40;99.90
44767;DHT22;30487;48.716;9.272;2022-11-15T16:57:53;12.30;99.90
44767;DHT22;30487;48.716;9.272;2022-11-15T17:00:20;12.30;99.90
44767;DHT22;30487;48.716;9.272;2022-11-15T17:02:47;12.30;99.90
44767;DHT22;30487;48.716;9.272;2022-11-15T17:05:14;12.30;99.90
44767;DHT22;30487;48.716;9.272;2022-11-15T17:07:40;12.30;99.90
44767;DHT22;30487;48.716;9.272;2022-11-15T17:10:08;12.30;99.90
44767;DHT22;30487;48.716;9.272;2022-11-15T17:12:34;12.20;99.90
44767;DHT22;30487;48.716;9.272;2022-11-15T17:15:00;12.30;99.90
44767;DHT22;30487;48.716;9.272;2022-11-15T17:17:26;12.20;99.90
44767;DHT22;30487;48.716;9.272;2022-11-15T17:19:52;12.30;99.90
44767;DHT22;30487;48.716;9.272;2022-11-15T17:22:19;12.20;99.90
44767;DHT22;30487;48.716;9.272;2022-11-15T17:24:45;12.20;99.90
44767;DHT22;30487;48.716;9.272;2022-11-15T17:27:10;12.20;99.90
44767;DHT22;30487;48.716;9.272;2022-11-15T17:29:36;12.20;99.90
44767;DHT22;30487;48.716;9.272;2022-11-15T17:32:02;12.20;99.90
44767;DHT22;30487;48.716;9.272;2022-11-15T17:34:27;12.20;99.90
44767;DHT22;30487;48.716;9.272;2022-11-15T17:36:53;12.20;99.90
44767;DHT22;30487;48.716;9.272;2022-11-15T17:39:18;12.10;99.90
44767;DHT22;30487;48.716;9.272;2022-11-15T17:41:45;12.20;99.90
44767;DHT22;30487;48.716;9.272;2022-11-15T17:44:12;12.10;99.90
44767;DHT22;30487;48.716;9.272;2022-11-15T17:46:38;12.20;99.90
44767;DHT22;30487;48.716;9.272;2022-11-15T17:49:05;12.10;99.90
44767;DHT22;30487;48.716;9.272;2022-11-15T17:51:31;12.00;99.90
44767;DHT22;30487;48.716;9.272;2022-11-15T17:53:57;12.10;99.90
44767;DHT22;30487;48.716;9.272;2022-11-15T17:56:24;12.10;99.90
44767;DHT22;30487;48.716;9.272;2022-11-15T17:58:52;12.00;99.90
44767;DHT22;30487;48.716;9.272;2022-11-15T18:01:26;12.00;99.90
44767;DHT22;30487;48.716;9.272;2022-11-15T18:03:53;12.00;99.90